sensor_id;sensor_type;location;lat;lon;timestamp;pressure;altitude;pressure_sealevel;temperature;humidity
5138;BME280;53959;53.626;11.410;2023-12-20T00:01:26;145244.56;;;6.23;100.00
5138;BME280;53959;53.626;11.410;2023-12-20T00:03:51;145233.31;;;6.19;100.00
5138;BME280;53959;53.626;11.410;2023-12-20T00:06:17;145290.91;;;6.42;100.00
5138;BME280;53959;53.626;11.410;2023-12-20T00:08:42;145255.81;;;6.28;100.00
5138;BME280;53959;53.626;11.410;2023-12-20T00:11:07;145260.84;;;6.30;100.00
5138;BME280;53959;53.626;11.410;2023-12-20T00:13:33;145254.59;;;6.27;100.00
5138;BME280;53959;53.626;11.410;2023-12-20T00:15:58;145232.06;;;6.18;100.00
5138;BME280;53959;53.626;11.410;2023-12-20T00:18:23;145230.81;;;6.18;100.00
5138;BME280;53959;53.626;11.410;2023-12-20T00:20:49;145198.22;;;6.04;100.00
5138;BME280;53959;53.626;11.410;2023-12-20T00:23:14;145210.78;;;6.10;100.00
5138;BME280;53959;53.626;11.410;2023-12-20T00:25:40;145192.00;;;6.02;100.00
5138;BME280;53959;53.626;11.410;2023-12-20T00:28:05;145185.72;;;5.99;100.00
5138;BME280;53959;53.626;11.410;2023-12-20T00:30:31;145196.97;;;6.04;100.00
5138;BME280;53959;53.626;11.410;2023-12-20T00:32:56;145164.41;;;5.91;100.00
5138;BME280;53959;53.626;11.410;2023-12-20T00:35:22;145178.19;;;5.96;100.00
5138;BME280;53959;53.626;11.410;2023-12-20T00:37:47;145160.63;;;5.89;100.00
5138;BME280;53959;53.626;11.410;2023-12-20T00:40:12;145155.63;;;5.87;100.00
5138;BME280;53959;53.626;11.410;2023-12-20T00:42:38;145148.09;;;5.84;100.00
5138;BME280;53959;53.626;11.410;2023-12-20T00:45:04;145156.88;;;5.88;100.00
5138;BME280;53959;53.626;11.410;2023-12-20T00:47:30;145169.44;;;5.93;100.00
5138;BME280;53959;53.626;11.410;2023-12-20T00:49:55;145166.88;;;5.92;100.00
5138;BME280;53959;53.626;11.410;2023-12-20T00:52:21;145180.69;;;5.97;100.00
5138;BME280;53959;53.626;11.410;2023-12-20T00:54:48;145130.56;;;5.77;100.00
5138;BME280;53959;53.626;11.410;2023-12-20T00:57:13;145161.84;;;5.90;100.00
5138;BME280;53959;53.626;11.410;2023-12-20T00:59:39;145145.63;;;5.83;100.00
5138;BME280;53959;53.626;11.410;2023-12-20T01:02:04;145109.31;;;5.68;100.00
5138;BME280;53959;53.626;11.410;2023-12-20T01:04:29;145150.59;;;5.85;100.00
5138;BME280;53959;53.626;11.410;2023-12-20T01:06:55;145118.06;;;5.72;100.00
5138;BME280;53959;53.626;11.410;2023-12-20T01:09:20;145134.31;;;5.78;100.00
5138;BME280;53959;53.626;11.410;2023-12-20T01:11:48;145113.03;;;5.70;100.00
5138;BME280;53959;53.626;11.410;2023-12-20T01:14:14;145079.22;;;5.56;100.00
5138;BME280;53959;53.626;11.410;2023-12-20T01:16:39;145098.00;;;5.64;100.00
5138;BME280;53959;53.626;11.410;2023-12-20T01:19:04;145056.72;;;5.47;100.00
5138;BME280;53959;53.626;11.410;2023-12-20T01:21:30;145091.78;;;5.61;100.00
5138;BME280;53959;53.626;11.410;2023-12-20T01:23:55;145093.03;;;5.62;100.00
5138;BME280;53959;53.626;11.410;2023-12-20T01:26:20;145066.72;;;5.51;100.00
5138;BME280;53959;53.626;11.410;2023-12-20T01:28:46;145075.50;;;5.54;100.00
5138;BME280;53959;53.626;11.410;2023-12-20T01:31:11;145042.91;;;5.41;100.00
5138;BME280;53959;53.626;11.410;2023-12-20T01:33:36;145019.16;;;5.31;100.00
5138;BME280;53959;53.626;11.410;2023-12-20T01:36:02;145036.69;;;5.39;100.00
5138;BME280;53959;53.626;11.410;2023-12-20T01:38:28;145012.91;;;5.29;100.00
5138;BME280;53959;53.626;11.410;2023-12-20T01:40:54;144996.59;;;5.22;100.00
5138;BME280;53959;53.626;11.410;2023-12-20T01:43:19;145025.38;;;5.34;100.00
5138;BME280;53959;53.626;11.410;2023-12-20T01:45:44;144986.59;;;5.18;100.00
5138;BME280;53959;53.626;11.410;2023-12-20T01:48:10;145000.41;;;5.24;100.00
5138;BME280;53959;53.626;11.410;2023-12-20T01:50:36;145012.91;;;5.29;100.00
5138;BME280;53959;53.626;11.410;2023-12-20T01:53:03;145009.16;;;5.27;100.00
5138;BME280;53959;53.626;11.410;2023-12-20T01:55:33;145011.66;;;5.28;100.00
5138;BME280;53959;53.626;11.410;2023-12-20T01:58:00;145022.91;;;5.33;100.00
5138;BME280;53959;53.626;11.410;2023-12-20T02:00:27;145002.88;;;5.25;100.00
5138;BME280;53959;53.626;11.410;2023-12-20T02:02:54;145020.41;;;5.32;100.00
5138;BME280;53959;53.626;11.410;2023-12-20T02:05:21;145007.91;;;5.27;100.00
5138;BME280;53959;53.626;11.410;2023-12-20T02:07:47;145021.66;;;5.32;100.00
5138;BME280;53959;53.626;11.410;2023-12-20T02:10:13;145025.38;;;5.34;100.00
5138;BME280;53959;53.626;11.410;2023-12-20T02:12:40;145009.16;;;5.27;100.00
5138;BME280;53959;53.626;11.410;2023-12-20T02:15:06;145037.94;;;5.39;100.00
5138;BME280;53959;53.626;11.410;2023-12-20T02:17:32;145027.94;;;5.35;100.00
5138;BME280;53959;53.626;11.410;2023-12-20T02:19:57;145035.44;;;5.38;100.00
5138;BME280;53959;53.626;11.410;2023-12-20T02:22:23;145046.69;;;5.43;100.00
5138;BME280;53959;53.626;11.410;2023-12-20T02:24:48;145040.44;;;5.40;100.00
5138;BME280;53959;53.626;11.410;2023-12-20T02:27:15;145050.44;;;5.44;100.00
5138;BME280;53959;53.626;11.410;2023-12-20T02:29:40;145044.22;;;5.42;100.00
5138;BME280;53959;53.626;11.410;2023-12-20T02:32:06;145059.19;;;5.48;100.00
5138;BME280;53959;53.626;11.410;2023-12-20T02:34:31;145064.22;;;5.50;100.00
5138;BME280;53959;53.626;11.410;2023-12-20T02:36:56;145047.94;;;5.43;100.00
5138;BME280;53959;53.626;11.410;2023-12-20T02:39:22;145054.22;;;5.46;100.00
5138;BME280;53959;53.626;11.410;2023-12-20T02:41:48;145060.44;;;5.48;100.00
5138;BME280;53959;53.626;11.410;2023-12-20T02:44:13;145066.72;;;5.51;100.00
5138;BME280;53959;53.626;11.410;2023-12-20T02:46:38;145064.22;;;5.50;100.00
5138;BME280;53959;53.626;11.410;2023-12-20T02:49:04;145067.97;;;5.51;100.00
5138;BME280;53959;53.626;11.410;2023-12-20T02:51:29;145080.47;;;5.56;100.00
5138;BME280;53959;53.626;11.410;2023-12-20T02:53:54;145059.19;;;5.48;100.00
5138;BME280;53959;53.626;11.410;2023-12-20T02:56:20;145066.72;;;5.51;100.00
5138;BME280;53959;53.626;11.410;2023-12-20T02:58:45;145074.25;;;5.54;100.00
5138;BME280;53959;53.626;11.410;2023-12-20T03:01:10;145083.00;;;5.57;100.00
5138;BME280;53959;53.626;11.410;2023-12-20T03:03:36;145074.25;;;5.54;100.00
5138;BME280;53959;53.626;11.410;2023-12-20T03:06:01;145050.44;;;5.44;100.00
5138;BME280;53959;53.626;11.410;2023-12-20T03:08:26;145079.22;;;5.56;100.00
5138;BME280;53959;53.626;11.410;2023-12-20T03:10:52;145067.97;;;5.51;100.00
5138;BME280;53959;53.626;11.410;2023-12-20T03:13:18;145085.50;;;5.58;100.00
5138;BME280;53959;53.626;11.410;2023-12-20T03:15:44;145065.47;;;5.50;100.00
5138;BME280;53959;53.626;11.410;2023-12-20T03:18:09;145090.53;;;5.60;100.00
5138;BME280;53959;53.626;11.410;2023-12-20T03:20:35;145076.72;;;5.55;100.00
5138;BME280;53959;53.626;11.410;2023-12-20T03:23:00;145084.25;;;5.58;100.00
5138;BME280;53959;53.626;11.410;2023-12-20T03:25:26;145077.97;;;5.55;100.00
5138;BME280;53959;53.626;11.410;2023-12-20T03:27:52;145075.50;;;5.54;100.00
5138;BME280;53959;53.626;11.410;2023-12-20T03:30:17;145081.75;;;5.57;100.00
5138;BME280;53959;53.626;11.410;2023-12-20T03:32:44;145074.25;;;5.54;100.00
5138;BME280;53959;53.626;11.410;2023-12-20T03:35:09;145101.78;;;5.65;100.00
5138;BME280;53959;53.626;11.410;2023-12-20T03:37:35;145096.75;;;5.63;100.00
5138;BME280;53959;53.626;11.410;2023-12-20T03:40:01;145081.75;;;5.57;100.00
5138;BME280;53959;53.626;11.410;2023-12-20T03:42:26;145103.03;;;5.66;100.00
5138;BME280;53959;53.626;11.410;2023-12-20T03:44:52;145076.72;;;5.55;100.00
5138;BME280;53959;53.626;11.410;2023-12-20T03:47:17;145084.25;;;5.58;100.00
5138;BME280;53959;53.626;11.410;2023-12-20T03:49:42;145088.00;;;5.59;100.00
5138;BME280;53959;53.626;11.410;2023-12-20T03:52:08;145069.22;;;5.52;100.00
5138;BME280;53959;53.626;11.410;2023-12-20T03:54:35;145110.53;;;5.69;100.00
5138;BME280;53959;53.626;11.410;2023-12-20T03:57:00;145098.00;;;5.64;100.00
5138;BME280;53959;53.626;11.410;2023-12-20T03:59:25;145090.53;;;5.60;100.00
5138;BME280;53959;53.626;11.410;2023-12-20T04:01:51;145093.03;;;5.62;100.00
5138;BME280;53959;53.626;11.410;2023-12-20T04:04:16;145109.31;;;5.68;100.00
5138;BME280;53959;53.626;11.410;2023-12-20T04:06:41;145108.00;;;5.68;100.00
5138;BME280;53959;53.626;11.410;2023-12-20T04:09:07;145100.53;;;5.65;100.00
5138;BME280;53959;53.626;11.410;2023-12-20T04:11:34;145105.53;;;5.67;100.00
5138;BME280;53959;53.626;11.410;2023-12-20T04:14:00;145094.25;;;5.62;100.00
5138;BME280;53959;53.626;11.410;2023-12-20T04:16:26;145101.78;;;5.65;100.00
5138;BME280;53959;53.626;11.410;2023-12-20T04:18:51;145115.53;;;5.71;100.00
5138;BME280;53959;53.626;11.410;2023-12-20T04:21:17;145089.22;;;5.60;100.00
5138;BME280;53959;53.626;11.410;2023-12-20T04:23:42;145094.25;;;5.62;100.00
5138;BME280;53959;53.626;11.410;2023-12-20T04:26:07;145110.53;;;5.69;100.00
5138;BME280;53959;53.626;11.410;2023-12-20T04:28:33;145095.50;;;5.63;100.00
5138;BME280;53959;53.626;11.410;2023-12-20T04:30:58;145105.53;;;5.67;100.00
5138;BME280;53959;53.626;11.410;2023-12-20T04:33:23;145116.78;;;5.71;100.00
5138;BME280;53959;53.626;11.410;2023-12-20T04:35:49;145103.03;;;5.66;100.00
5138;BME280;53959;53.626;11.410;2023-12-20T04:38:14;145121.81;;;5.73;100.00
5138;BME280;53959;53.626;11.410;2023-12-20T04:40:39;145096.75;;;5.63;100.00
5138;BME280;53959;53.626;11.410;2023-12-20T04:43:06;145105.53;;;5.67;100.00
5138;BME280;53959;53.626;11.410;2023-12-20T04:45:32;145118.06;;;5.72;100.00
5138;BME280;53959;53.626;11.410;2023-12-20T04:47:57;145106.78;;;5.67;100.00
5138;BME280;53959;53.626;11.410;2023-12-20T04:50:23;145123.06;;;5.74;100.00
5138;BME280;53959;53.626;11.410;2023-12-20T04:52:48;145128.09;;;5.76;100.00
5138;BME280;53959;53.626;11.410;2023-12-20T04:55:14;145125.53;;;5.75;100.00
5138;BME280;53959;53.626;11.410;2023-12-20T04:57:39;145121.81;;;5.73;100.00
5138;BME280;53959;53.626;11.410;2023-12-20T05:00:05;145118.06;;;5.72;100.00
5138;BME280;53959;53.626;11.410;2023-12-20T05:02:31;145110.53;;;5.69;100.00
5138;BME280;53959;53.626;11.410;2023-12-20T05:04:56;145101.78;;;5.65;100.00
5138;BME280;53959;53.626;11.410;2023-12-20T05:07:21;145128.09;;;5.76;100.00
5138;BME280;53959;53.626;11.410;2023-12-20T05:09:47;145119.31;;;5.72;100.00
5138;BME280;53959;53.626;11.410;2023-12-20T05:12:12;145083.00;;;5.57;100.00
5138;BME280;53959;53.626;11.410;2023-12-20T05:14:37;145075.50;;;5.54;100.00
5138;BME280;53959;53.626;11.410;2023-12-20T05:17:03;145076.72;;;5.55;100.00
5138;BME280;53959;53.626;11.410;2023-12-20T05:19:29;145085.50;;;5.58;100.00
5138;BME280;53959;53.626;11.410;2023-12-20T05:21:54;145116.78;;;5.71;100.00
5138;BME280;53959;53.626;11.410;2023-12-20T05:24:19;145089.22;;;5.60;100.00
5138;BME280;53959;53.626;11.410;2023-12-20T05:26:44;145088.00;;;5.59;100.00
5138;BME280;53959;53.626;11.410;2023-12-20T05:29:10;145070.47;;;5.52;100.00
5138;BME280;53959;53.626;11.410;2023-12-20T05:31:35;145070.47;;;5.52;100.00
5138;BME280;53959;53.626;11.410;2023-12-20T05:34:00;145088.00;;;5.59;100.00
5138;BME280;53959;53.626;11.410;2023-12-20T05:36:26;145088.00;;;5.59;100.00
5138;BME280;53959;53.626;11.410;2023-12-20T05:38:51;145086.75;;;5.59;100.00
5138;BME280;53959;53.626;11.410;2023-12-20T05:41:16;145075.50;;;5.54;100.00
5138;BME280;53959;53.626;11.410;2023-12-20T05:43:42;145100.53;;;5.65;100.00
5138;BME280;53959;53.626;11.410;2023-12-20T05:46:10;145100.53;;;5.65;100.00
5138;BME280;53959;53.626;11.410;2023-12-20T05:48:35;145096.75;;;5.63;100.00
5138;BME280;53959;53.626;11.410;2023-12-20T05:51:00;145055.47;;;5.46;100.00
5138;BME280;53959;53.626;11.410;2023-12-20T05:53:26;145069.22;;;5.52;100.00
5138;BME280;53959;53.626;11.410;2023-12-20T05:55:51;145088.00;;;5.59;100.00
5138;BME280;53959;53.626;11.410;2023-12-20T05:58:16;145090.53;;;5.60;100.00
5138;BME280;53959;53.626;11.410;2023-12-20T06:00:42;145061.69;;;5.49;100.00
5138;BME280;53959;53.626;11.410;2023-12-20T06:03:07;145080.47;;;5.56;100.00
5138;BME280;53959;53.626;11.410;2023-12-20T06:05:32;145088.00;;;5.59;100.00
5138;BME280;53959;53.626;11.410;2023-12-20T06:07:58;145077.97;;;5.55;100.00
5138;BME280;53959;53.626;11.410;2023-12-20T06:10:27;145085.50;;;5.58;100.00
5138;BME280;53959;53.626;11.410;2023-12-20T06:12:52;145103.03;;;5.66;100.00
5138;BME280;53959;53.626;11.410;2023-12-20T06:15:18;145108.00;;;5.68;100.00
5138;BME280;53959;53.626;11.410;2023-12-20T06:17:43;145096.75;;;5.63;100.00
5138;BME280;53959;53.626;11.410;2023-12-20T06:20:09;145093.03;;;5.62;100.00
5138;BME280;53959;53.626;11.410;2023-12-20T06:22:35;145100.53;;;5.65;100.00
5138;BME280;53959;53.626;11.410;2023-12-20T06:25:02;145118.06;;;5.72;100.00
5138;BME280;53959;53.626;11.410;2023-12-20T06:27:28;145125.53;;;5.75;100.00
5138;BME280;53959;53.626;11.410;2023-12-20T06:29:54;145126.78;;;5.75;100.00
5138;BME280;53959;53.626;11.410;2023-12-20T06:32:19;145126.78;;;5.75;100.00
5138;BME280;53959;53.626;11.410;2023-12-20T06:34:45;145136.84;;;5.79;100.00
5138;BME280;53959;53.626;11.410;2023-12-20T06:37:10;145125.53;;;5.75;100.00
5138;BME280;53959;53.626;11.410;2023-12-20T06:39:35;145123.06;;;5.74;100.00
5138;BME280;53959;53.626;11.410;2023-12-20T06:42:00;145128.09;;;5.76;100.00
5138;BME280;53959;53.626;11.410;2023-12-20T06:44:26;145139.34;;;5.80;100.00
5138;BME280;53959;53.626;11.410;2023-12-20T06:46:51;145138.09;;;5.80;100.00
5138;BME280;53959;53.626;11.410;2023-12-20T06:49:17;145126.78;;;5.75;100.00
5138;BME280;53959;53.626;11.410;2023-12-20T06:51:42;145121.81;;;5.73;100.00
5138;BME280;53959;53.626;11.410;2023-12-20T06:54:08;145139.34;;;5.80;100.00
5138;BME280;53959;53.626;11.410;2023-12-20T06:56:33;145130.56;;;5.77;100.00
5138;BME280;53959;53.626;11.410;2023-12-20T06:58:58;145143.09;;;5.82;100.00
5138;BME280;53959;53.626;11.410;2023-12-20T07:01:24;145135.56;;;5.79;100.00
5138;BME280;53959;53.626;11.410;2023-12-20T07:03:49;145148.09;;;5.84;100.00
5138;BME280;53959;53.626;11.410;2023-12-20T07:06:14;145129.34;;;5.76;100.00
5138;BME280;53959;53.626;11.410;2023-12-20T07:08:41;145168.19;;;5.92;100.00
5138;BME280;53959;53.626;11.410;2023-12-20T07:11:07;145148.09;;;5.84;100.00
5138;BME280;53959;53.626;11.410;2023-12-20T07:13:32;145135.56;;;5.79;100.00
5138;BME280;53959;53.626;11.410;2023-12-20T07:15:57;145136.84;;;5.79;100.00
5138;BME280;53959;53.626;11.410;2023-12-20T07:18:23;145115.53;;;5.71;100.00
5138;BME280;53959;53.626;11.410;2023-12-20T07:20:48;145116.78;;;5.71;100.00
5138;BME280;53959;53.626;11.410;2023-12-20T07:23:13;145113.03;;;5.70;100.00
5138;BME280;53959;53.626;11.410;2023-12-20T07:25:39;145104.28;;;5.66;100.00
5138;BME280;53959;53.626;11.410;2023-12-20T07:28:04;145081.75;;;5.57;100.00
5138;BME280;53959;53.626;11.410;2023-12-20T07:30:30;145108.00;;;5.68;100.00
5138;BME280;53959;53.626;11.410;2023-12-20T07:32:55;145116.78;;;5.71;100.00
5138;BME280;53959;53.626;11.410;2023-12-20T07:35:21;145098.00;;;5.64;100.00
5138;BME280;53959;53.626;11.410;2023-12-20T07:37:46;145075.50;;;5.54;100.00
5138;BME280;53959;53.626;11.410;2023-12-20T07:40:11;145075.50;;;5.54;100.00
5138;BME280;53959;53.626;11.410;2023-12-20T07:42:37;145065.47;;;5.50;100.00
5138;BME280;53959;53.626;11.410;2023-12-20T07:45:03;145060.44;;;5.48;100.00
5138;BME280;53959;53.626;11.410;2023-12-20T07:47:28;145054.22;;;5.46;100.00
5138;BME280;53959;53.626;11.410;2023-12-20T07:49:54;145060.44;;;5.48;100.00
5138;BME280;53959;53.626;11.410;2023-12-20T07:52:19;145071.75;;;5.53;100.00
5138;BME280;53959;53.626;11.410;2023-12-20T07:54:45;145070.47;;;5.52;100.00
5138;BME280;53959;53.626;11.410;2023-12-20T07:57:11;145056.72;;;5.47;100.00
5138;BME280;53959;53.626;11.410;2023-12-20T07:59:36;145079.22;;;5.56;100.00
5138;BME280;53959;53.626;11.410;2023-12-20T08:02:02;145089.22;;;5.60;100.00
5138;BME280;53959;53.626;11.410;2023-12-20T08:04:27;145085.50;;;5.58;100.00
5138;BME280;53959;53.626;11.410;2023-12-20T08:06:52;145071.75;;;5.53;100.00
5138;BME280;53959;53.626;11.410;2023-12-20T08:09:18;145103.03;;;5.66;100.00
5138;BME280;53959;53.626;11.410;2023-12-20T08:11:48;145140.59;;;5.81;100.00
5138;BME280;53959;53.626;11.410;2023-12-20T08:14:14;145123.06;;;5.74;100.00
5138;BME280;53959;53.626;11.410;2023-12-20T08:16:39;145143.09;;;5.82;100.00
5138;BME280;53959;53.626;11.410;2023-12-20T08:19:04;145163.09;;;5.90;100.00
5138;BME280;53959;53.626;11.410;2023-12-20T08:21:30;145155.63;;;5.87;100.00
5138;BME280;53959;53.626;11.410;2023-12-20T08:23:55;145185.72;;;5.99;100.00
5138;BME280;53959;53.626;11.410;2023-12-20T08:26:21;145189.47;;;6.01;100.00
5138;BME280;53959;53.626;11.410;2023-12-20T08:28:50;145170.66;;;5.93;100.00
5138;BME280;53959;53.626;11.410;2023-12-20T08:31:16;145212.03;;;6.10;100.00
5138;BME280;53959;53.626;11.410;2023-12-20T08:33:43;145192.00;;;6.02;100.00
5138;BME280;53959;53.626;11.410;2023-12-20T08:36:08;145198.22;;;6.04;100.00
5138;BME280;53959;53.626;11.410;2023-12-20T08:38:34;145194.50;;;6.03;100.00
5138;BME280;53959;53.626;11.410;2023-12-20T08:40:59;145190.69;;;6.01;100.00
5138;BME280;53959;53.626;11.410;2023-12-20T08:43:25;145179.44;;;5.97;100.00
5138;BME280;53959;53.626;11.410;2023-12-20T08:45:50;145173.22;;;5.94;100.00
5138;BME280;53959;53.626;11.410;2023-12-20T08:48:15;145143.09;;;5.82;100.00
5138;BME280;53959;53.626;11.410;2023-12-20T08:50:41;145170.66;;;5.93;100.00
5138;BME280;53959;53.626;11.410;2023-12-20T08:53:06;145173.22;;;5.94;100.00
5138;BME280;53959;53.626;11.410;2023-12-20T08:55:32;145166.88;;;5.92;100.00
5138;BME280;53959;53.626;11.410;2023-12-20T08:57:57;145171.91;;;5.94;100.00
5138;BME280;53959;53.626;11.410;2023-12-20T09:00:22;145185.72;;;5.99;100.00
5138;BME280;53959;53.626;11.410;2023-12-20T09:02:49;145155.63;;;5.87;100.00
5138;BME280;53959;53.626;11.410;2023-12-20T09:05:15;145180.69;;;5.97;100.00
5138;BME280;53959;53.626;11.410;2023-12-20T09:07:40;145168.19;;;5.92;100.00
5138;BME280;53959;53.626;11.410;2023-12-20T09:10:06;145185.72;;;5.99;100.00
5138;BME280;53959;53.626;11.410;2023-12-20T09:12:31;145203.25;;;6.06;100.00
5138;BME280;53959;53.626;11.410;2023-12-20T09:14:57;145188.22;;;6.00;100.00
5138;BME280;53959;53.626;11.410;2023-12-20T09:17:22;145229.56;;;6.17;100.00
5138;BME280;53959;53.626;11.410;2023-12-20T09:19:50;145228.28;;;6.17;100.00
5138;BME280;53959;53.626;11.410;2023-12-20T09:22:17;145213.28;;;6.11;100.00
5138;BME280;53959;53.626;11.410;2023-12-20T09:24:43;145228.28;;;6.17;100.00
5138;BME280;53959;53.626;11.410;2023-12-20T09:27:08;145232.06;;;6.18;100.00
5138;BME280;53959;53.626;11.410;2023-12-20T09:29:34;145237.03;;;6.20;100.00
5138;BME280;53959;53.626;11.410;2023-12-20T09:31:59;145233.31;;;6.19;100.00
5138;BME280;53959;53.626;11.410;2023-12-20T09:34:24;145254.59;;;6.27;100.00
5138;BME280;53959;53.626;11.410;2023-12-20T09:36:51;145247.09;;;6.24;100.00
5138;BME280;53959;53.626;11.410;2023-12-20T09:39:18;145268.38;;;6.33;100.00
5138;BME280;53959;53.626;11.410;2023-12-20T09:42:00;145262.09;;;6.30;100.00
5138;BME280;53959;53.626;11.410;2023-12-20T09:44:25;145238.34;;;6.21;100.00
5138;BME280;53959;53.626;11.410;2023-12-20T09:46:52;145243.31;;;6.23;100.00
5138;BME280;53959;53.626;11.410;2023-12-20T09:49:19;145223.28;;;6.15;100.00
5138;BME280;53959;53.626;11.410;2023-12-20T09:51:46;145204.50;;;6.07;100.00
5138;BME280;53959;53.626;11.410;2023-12-20T09:54:14;145193.25;;;6.02;100.00
5138;BME280;53959;53.626;11.410;2023-12-20T09:56:39;145186.97;;;6.00;100.00
5138;BME280;53959;53.626;11.410;2023-12-20T09:59:04;145200.72;;;6.05;100.00
5138;BME280;53959;53.626;11.410;2023-12-20T10:01:31;145195.72;;;6.03;100.00
5138;BME280;53959;53.626;11.410;2023-12-20T10:03:57;145188.22;;;6.00;100.00
5138;BME280;53959;53.626;11.410;2023-12-20T10:06:23;145204.50;;;6.07;100.00
5138;BME280;53959;53.626;11.410;2023-12-20T10:08:49;145151.84;;;5.85;100.00
5138;BME280;53959;53.626;11.410;2023-12-20T10:11:14;145136.84;;;5.79;100.00
5138;BME280;53959;53.626;11.410;2023-12-20T10:13:40;145123.06;;;5.74;100.00
5138;BME280;53959;53.626;11.410;2023-12-20T10:16:07;145133.06;;;5.78;100.00
5138;BME280;53959;53.626;11.410;2023-12-20T10:18:35;145151.84;;;5.85;100.00
5138;BME280;53959;53.626;11.410;2023-12-20T10:21:01;145104.28;;;5.66;100.00
5138;BME280;53959;53.626;11.410;2023-12-20T10:23:26;145090.53;;;5.60;100.00
5138;BME280;53959;53.626;11.410;2023-12-20T10:26:01;145110.53;;;5.69;100.00
5138;BME280;53959;53.626;11.410;2023-12-20T10:28:33;145110.53;;;5.69;100.00
5138;BME280;53959;53.626;11.410;2023-12-20T10:30:59;145103.03;;;5.66;100.00
5138;BME280;53959;53.626;11.410;2023-12-20T10:33:28;145095.50;;;5.63;100.00
5138;BME280;53959;53.626;11.410;2023-12-20T10:35:54;145069.22;;;5.52;100.00
5138;BME280;53959;53.626;11.410;2023-12-20T10:38:20;145077.97;;;5.55;100.00
5138;BME280;53959;53.626;11.410;2023-12-20T10:40:46;145100.53;;;5.65;100.00
5138;BME280;53959;53.626;11.410;2023-12-20T10:43:12;145098.00;;;5.64;100.00
5138;BME280;53959;53.626;11.410;2023-12-20T10:45:37;145080.47;;;5.56;100.00
5138;BME280;53959;53.626;11.410;2023-12-20T10:48:03;145076.72;;;5.55;100.00
5138;BME280;53959;53.626;11.410;2023-12-20T10:50:29;145115.53;;;5.71;100.00
5138;BME280;53959;53.626;11.410;2023-12-20T10:52:56;145071.75;;;5.53;100.00
5138;BME280;53959;53.626;11.410;2023-12-20T10:55:25;145106.78;;;5.67;100.00
5138;BME280;53959;53.626;11.410;2023-12-20T10:57:51;145108.00;;;5.68;100.00
5138;BME280;53959;53.626;11.410;2023-12-20T11:00:18;145106.78;;;5.67;100.00
5138;BME280;53959;53.626;11.410;2023-12-20T11:02:44;145111.78;;;5.69;100.00
5138;BME280;53959;53.626;11.410;2023-12-20T11:08:03;145103.03;;;5.66;100.00
5138;BME280;53959;53.626;11.410;2023-12-20T11:10:38;145111.78;;;5.69;100.00
5138;BME280;53959;53.626;11.410;2023-12-20T11:13:19;145118.06;;;5.72;100.00
5138;BME280;53959;53.626;11.410;2023-12-20T11:15:45;145156.88;;;5.88;100.00
5138;BME280;53959;53.626;11.410;2023-12-20T11:18:11;145175.72;;;5.95;100.00
5138;BME280;53959;53.626;11.410;2023-12-20T11:20:41;145198.22;;;6.04;100.00
5138;BME280;53959;53.626;11.410;2023-12-20T11:23:08;145200.72;;;6.05;100.00
5138;BME280;53959;53.626;11.410;2023-12-20T11:25:46;145154.34;;;5.87;100.00
5138;BME280;53959;53.626;11.410;2023-12-20T11:28:12;145144.31;;;5.82;100.00
5138;BME280;53959;53.626;11.410;2023-12-20T11:30:55;145154.34;;;5.87;100.00
5138;BME280;53959;53.626;11.410;2023-12-20T11:33:26;145165.66;;;5.91;100.00
5138;BME280;53959;53.626;11.410;2023-12-20T11:35:52;145135.56;;;5.79;100.00
5138;BME280;53959;53.626;11.410;2023-12-20T11:38:20;145133.06;;;5.78;100.00
5138;BME280;53959;53.626;11.410;2023-12-20T11:40:48;145135.56;;;5.79;100.00
5138;BME280;53959;53.626;11.410;2023-12-20T11:43:29;145140.59;;;5.81;100.00
5138;BME280;53959;53.626;11.410;2023-12-20T11:46:02;145135.56;;;5.79;100.00
5138;BME280;53959;53.626;11.410;2023-12-20T11:48:28;145153.09;;;5.86;100.00
5138;BME280;53959;53.626;11.410;2023-12-20T11:50:53;145150.59;;;5.85;100.00
5138;BME280;53959;53.626;11.410;2023-12-20T11:53:19;145154.34;;;5.87;100.00
5138;BME280;53959;53.626;11.410;2023-12-20T11:55:48;145148.09;;;5.84;100.00
5138;BME280;53959;53.626;11.410;2023-12-20T11:58:14;145144.31;;;5.82;100.00
5138;BME280;53959;53.626;11.410;2023-12-20T12:00:41;145161.84;;;5.90;100.00
5138;BME280;53959;53.626;11.410;2023-12-20T12:03:06;145120.56;;;5.73;100.00
5138;BME280;53959;53.626;11.410;2023-12-20T12:05:32;145103.03;;;5.66;100.00
5138;BME280;53959;53.626;11.410;2023-12-20T12:07:58;145115.53;;;5.71;100.00
5138;BME280;53959;53.626;11.410;2023-12-20T12:10:23;145042.91;;;5.41;100.00
5138;BME280;53959;53.626;11.410;2023-12-20T12:12:49;145002.88;;;5.25;100.00
5138;BME280;53959;53.626;11.410;2023-12-20T12:15:15;145027.94;;;5.35;100.00
5138;BME280;53959;53.626;11.410;2023-12-20T12:17:40;144991.63;;;5.20;100.00
5138;BME280;53959;53.626;11.410;2023-12-20T12:20:07;144950.31;;;5.03;100.00
5138;BME280;53959;53.626;11.410;2023-12-20T12:22:33;144957.81;;;5.06;100.00
5138;BME280;53959;53.626;11.410;2023-12-20T12:24:59;144964.09;;;5.09;100.00
5138;BME280;53959;53.626;11.410;2023-12-20T12:27:34;144974.09;;;5.13;100.00
5138;BME280;53959;53.626;11.410;2023-12-20T12:30:04;145021.66;;;5.32;100.00
5138;BME280;53959;53.626;11.410;2023-12-20T12:32:30;145046.69;;;5.43;100.00
5138;BME280;53959;53.626;11.410;2023-12-20T12:34:55;145060.44;;;5.48;100.00
5138;BME280;53959;53.626;11.410;2023-12-20T12:37:22;145051.69;;;5.45;100.00
5138;BME280;53959;53.626;11.410;2023-12-20T12:39:49;145041.69;;;5.41;100.00
5138;BME280;53959;53.626;11.410;2023-12-20T12:42:14;145070.47;;;5.52;100.00
5138;BME280;53959;53.626;11.410;2023-12-20T12:44:40;145096.75;;;5.63;100.00
5138;BME280;53959;53.626;11.410;2023-12-20T12:47:05;145140.59;;;5.81;100.00